Time;durP1;ratioP1;P1;durP2;ratioP2;P2;SDS_P1;SDS_P2;PMS_P1;PMS_P2;Temp;Humidity;BMP_temperature;BMP_pressure;BME280_temperature;BME280_humidity;BME280_pressure;Samples;Min_cycle;Max_cycle;Signal;HPM_P1;HPM_P2
2023/05/10 00:01:15;;;;;;;;;;;;;;;;;;5089275;28;20368;-58
2023/05/10 00:03:41;;;;;;;;;;;;;;;;;;5084220;28;19959;-59
2023/05/10 00:06:07;;;;;;;;;;;;;;;;;;5085699;28;19948;-59
2023/05/10 00:08:33;;;;;;;;;;;;;;;;;;5082649;28;20341;-59
2023/05/10 00:11:00;;;;;;;;;;;;;;;;;;5085513;28;20332;-59
2023/05/10 00:13:26;;;;;;;;;;;;;;;;;;5088284;28;19999;-59
2023/05/10 00:15:51;;;;;;;;;;;;;;;;;;5086899;28;20474;-59
2023/05/10 00:18:17;;;;;;;;;;;;;;;;;;5085519;28;20467;-58
2023/05/10 00:20:45;;;;;;;;;;;;;;;;;;5087510;28;20405;-59
2023/05/10 00:23:11;;;;;;;;;;;;;;;;;;5088199;28;19926;-58
2023/05/10 00:25:37;;;;;;;;;;;;;;;;;;5085241;28;20380;-58
2023/05/10 00:28:03;;;;;;;;;;;;;;;;;;5084324;28;20375;-58
2023/05/10 00:30:29;;;;;;;;;;;;;;;;;;5087713;28;20389;-58
2023/05/10 00:32:55;;;;;;;;;;;;;;;;;;5087898;28;19959;-58
2023/05/10 00:35:21;;;;;;;;;;;;;;;;;;5084667;28;19916;-58
2023/05/10 00:37:47;;;;;;;;;;;;;;;;;;5085017;28;19916;-58
2023/05/10 00:40:13;;;;;;;;;;;;;;;;;;5085098;28;20337;-58
2023/05/10 00:42:39;;;;;;;;;;;;;;;;;;5082774;28;20444;-58
2023/05/10 00:45:05;;;;;;;;;;;;;;;;;;5083753;28;20383;-58
2023/05/10 00:47:31;;;;;;;;;;;;;;;;;;5085152;28;20454;-57
2023/05/10 00:49:57;;;;;;;;;;;;;;;;;;5085580;28;19970;-58
2023/05/10 00:52:23;;;;;;;;;;;;;;;;;;5085876;28;19952;-58
2023/05/10 00:54:49;;;;;;;;;;;;;;;;;;5088432;28;20015;-58
2023/05/10 00:57:15;;;;;;;;;;;;;;;;;;5087307;28;20376;-58
2023/05/10 00:59:41;;;;;;;;;;;;;;;;;;5081724;28;20314;-58
2023/05/10 01:02:07;;;;;;;;;;;;;;;;;;5085943;28;20408;-58
2023/05/10 01:04:33;;;;;;;;;;;;;;;;;;5080079;28;19952;-58
2023/05/10 01:06:59;;;;;;;;;;;;;;;;;;5083231;28;20024;-58
2023/05/10 01:09:26;;;;;;;;;;;;;;;;;;5084655;28;19934;-58
2023/05/10 01:11:52;;;;;;;;;;;;;;;;;;5085882;28;19920;-58
2023/05/10 01:14:18;;;;;;;;;;;;;;;;;;5084050;28;19916;-58
2023/05/10 01:16:44;;;;;;;;;;;;;;;;;;5087247;28;20016;-58
2023/05/10 01:19:10;;;;;;;;;;;;;;;;;;5083724;28;19962;-57
2023/05/10 01:21:36;;;;;;;;;;;;;;;;;;5087522;28;19970;-58
2023/05/10 01:24:02;;;;;;;;;;;;;;;;;;5086142;28;19962;-61
2023/05/10 01:26:28;;;;;;;;;;;;;;;;;;5087200;28;19951;-57
2023/05/10 01:28:54;;;;;;;;;;;;;;;;;;5085179;28;19916;-58
2023/05/10 01:31:20;;;;;;;;;;;;;;;;;;5087142;28;19935;-58
2023/05/10 01:33:46;;;;;;;;;;;;;;;;;;5084951;28;20352;-57
2023/05/10 01:36:11;;;;;;;;;;;;;;;;;;5084330;28;20371;-58
2023/05/10 01:38:38;;;;;;;;;;;;;;;;;;5086141;28;20391;-57
2023/05/10 01:41:04;;;;;;;;;;;;;;;;;;5085156;28;20011;-57
2023/05/10 01:43:31;;;;;;;;;;;;;;;;;;5081607;28;19995;-57
2023/05/10 01:45:56;;;;;;;;;;;;;;;;;;5087607;28;19909;-57
2023/05/10 01:48:22;;;;;;;;;;;;;;;;;;5084580;28;20551;-58
2023/05/10 01:50:48;;;;;;;;;;;;;;;;;;5087315;28;19958;-58
2023/05/10 01:53:14;;;;;;;;;;;;;;;;;;5081449;28;20293;-57
2023/05/10 01:55:40;;;;;;;;;;;;;;;;;;5088457;28;19940;-58
2023/05/10 01:58:06;;;;;;;;;;;;;;;;;;5085414;28;19976;-57
2023/05/10 02:00:32;;;;;;;;;;;;;;;;;;5086871;28;19956;-58
2023/05/10 02:02:58;;;;;;;;;;;;;;;;;;5081917;28;19989;-57
2023/05/10 02:05:24;;;;;;;;;;;;;;;;;;5079290;28;19966;-58
2023/05/10 02:07:50;;;;;;;;;;;;;;;;;;5084537;28;19964;-58
2023/05/10 02:10:16;;;;;;;;;;;;;;;;;;5085108;28;19939;-57
2023/05/10 02:12:42;;;;;;;;;;;;;;;;;;5086064;28;19954;-58
2023/05/10 02:15:08;;;;;;;;;;;;;;;;;;5084900;28;19947;-58
2023/05/10 02:17:34;;;;;;;;;;;;;;;;;;5087525;28;19908;-58
2023/05/10 02:20:00;;;;;;;;;;;;;;;;;;5080605;28;20924;-58
2023/05/10 02:22:26;;;;;;;;;;;;;;;;;;5086636;28;19956;-58
2023/05/10 02:24:52;;;;;;;;;;;;;;;;;;5082098;28;20001;-58
2023/05/10 02:27:18;;;;;;;;;;;;;;;;;;5085540;28;20041;-58
2023/05/10 02:29:44;;;;;;;;;;;;;;;;;;5083600;28;19963;-57
2023/05/10 02:32:10;;;;;;;;;;;;;;;;;;5084076;28;19951;-57
2023/05/10 02:34:36;;;;;;;;;;;;;;;;;;5081957;28;20181;-57
2023/05/10 02:37:02;;;;;;;;;;;;;;;;;;5086125;28;19943;-58
2023/05/10 02:39:28;;;;;;;;;;;;;;;;;;5081989;28;19947;-57
2023/05/10 02:41:55;;;;;;;;;;;;;;;;;;5081292;28;20342;-60
2023/05/10 02:44:21;;;;;;;;;;;;;;;;;;5080203;28;20398;-57
2023/05/10 02:46:47;;;;;;;;;;;;;;;;;;5085784;28;19943;-57
2023/05/10 02:49:13;;;;;;;;;;;;;;;;;;5084092;28;20274;-57
2023/05/10 02:51:39;;;;;;;;;;;;;;;;;;5083950;28;20008;-57
2023/05/10 02:54:06;;;;;;;;;;;;;;;;;;5081533;28;19958;-58
2023/05/10 02:56:32;;;;;;;;;;;;;;;;;;5086565;28;19913;-58
2023/05/10 02:58:58;;;;;;;;;;;;;;;;;;5079848;28;19951;-58
2023/05/10 03:01:23;;;;;;;;;;;;;;;;;;5083185;28;20228;-58
2023/05/10 03:03:49;;;;;;;;;;;;;;;;;;5083487;28;19970;-59
2023/05/10 03:06:16;;;;;;;;;;;;;;;;;;5087308;28;19939;-58
2023/05/10 03:08:42;;;;;;;;;;;;;;;;;;5084944;28;20368;-58
2023/05/10 03:11:08;;;;;;;;;;;;;;;;;;5086244;28;19943;-58
2023/05/10 03:13:35;;;;;;;;;;;;;;;;;;5083446;28;19983;-58
2023/05/10 03:16:01;;;;;;;;;;;;;;;;;;5080086;28;19942;-59
2023/05/10 03:18:27;;;;;;;;;;;;;;;;;;5081107;28;20395;-58
2023/05/10 03:20:53;;;;;;;;;;;;;;;;;;5080696;28;19920;-58
2023/05/10 03:23:18;;;;;;;;;;;;;;;;;;5085653;28;19991;-59
2023/05/10 03:25:45;;;;;;;;;;;;;;;;;;5086405;28;19955;-59
2023/05/10 03:28:11;;;;;;;;;;;;;;;;;;5081182;28;20376;-61
2023/05/10 03:30:37;;;;;;;;;;;;;;;;;;5082004;28;20009;-59
2023/05/10 03:33:03;;;;;;;;;;;;;;;;;;5082273;28;19927;-58
2023/05/10 03:35:28;;;;;;;;;;;;;;;;;;5094678;28;20325;-58
2023/05/10 03:37:54;;;;;;;;;;;;;;;;;;5100850;28;20303;-59
2023/05/10 03:40:20;;;;;;;;;;;;;;;;;;5093040;28;20362;-59
2023/05/10 03:42:46;;;;;;;;;;;;;;;;;;5092145;28;19971;-58
2023/05/10 03:45:12;;;;;;;;;;;;;;;;;;5093658;28;19959;-58
2023/05/10 03:47:38;;;;;;;;;;;;;;;;;;5092469;28;19998;-58
2023/05/10 03:50:04;;;;;;;;;;;;;;;;;;5093262;28;19974;-58
2023/05/10 03:52:31;;;;;;;;;;;;;;;;;;5093982;28;19912;-57
2023/05/10 03:54:57;;;;;;;;;;;;;;;;;;5102296;28;19927;-58
2023/05/10 03:57:23;;;;;;;;;;;;;;;;;;5093392;28;19916;-57
2023/05/10 03:59:49;;;;;;;;;;;;;;;;;;5092368;28;19962;-58
2023/05/10 04:02:15;;;;;;;;;;;;;;;;;;5092592;28;19939;-58
2023/05/10 04:04:41;;;;;;;;;;;;;;;;;;5091522;28;19955;-58
2023/05/10 04:07:07;;;;;;;;;;;;;;;;;;5099482;28;19959;-58
2023/05/10 04:09:33;;;;;;;;;;;;;;;;;;5090767;28;19978;-58
2023/05/10 04:12:02;;;;;;;;;;;;;;;;;;5091276;28;19912;-57
2023/05/10 04:14:28;;;;;;;;;;;;;;;;;;5091369;28;19916;-60
2023/05/10 04:16:54;;;;;;;;;;;;;;;;;;5099992;28;19951;-58
2023/05/10 04:19:20;;;;;;;;;;;;;;;;;;5090019;28;19919;-57
2023/05/10 04:21:45;;;;;;;;;;;;;;;;;;5090856;28;19920;-57
2023/05/10 04:24:11;;;;;;;;;;;;;;;;;;5094053;28;19942;-57
2023/05/10 04:26:37;;;;;;;;;;;;;;;;;;5102111;28;19974;-57
2023/05/10 04:29:03;;;;;;;;;;;;;;;;;;5087615;28;19975;-58
2023/05/10 04:31:29;;;;;;;;;;;;;;;;;;5093557;28;20012;-57
2023/05/10 04:33:55;;;;;;;;;;;;;;;;;;5089721;28;19943;-57
2023/05/10 04:36:21;;;;;;;;;;;;;;;;;;5088561;28;19942;-57
2023/05/10 04:38:47;;;;;;;;;;;;;;;;;;5092279;28;19919;-57
2023/05/10 04:41:13;;;;;;;;;;;;;;;;;;5093870;28;19916;-57
2023/05/10 04:43:39;;;;;;;;;;;;;;;;;;5092949;28;19963;-57
2023/05/10 04:46:05;;;;;;;;;;;;;;;;;;5097656;28;20527;-57
2023/05/10 04:48:31;;;;;;;;;;;;;;;;;;5084564;28;20355;-57
2023/05/10 04:50:57;;;;;;;;;;;;;;;;;;5093604;28;19955;-57
2023/05/10 04:53:23;;;;;;;;;;;;;;;;;;5096156;28;20356;-57
2023/05/10 04:55:49;;;;;;;;;;;;;;;;;;5095245;28;19943;-57
2023/05/10 04:58:15;;;;;;;;;;;;;;;;;;5098463;28;20379;-57
2023/05/10 05:00:42;;;;;;;;;;;;;;;;;;5097122;28;20269;-56
2023/05/10 05:03:08;;;;;;;;;;;;;;;;;;5096582;28;19916;-57
2023/05/10 05:05:34;;;;;;;;;;;;;;;;;;5092040;28;19955;-56
2023/05/10 05:08:00;;;;;;;;;;;;;;;;;;5092677;28;20007;-57
2023/05/10 05:10:26;;;;;;;;;;;;;;;;;;5092469;28;19998;-57
2023/05/10 05:12:52;;;;;;;;;;;;;;;;;;5097810;28;20015;-57
2023/05/10 05:15:18;;;;;;;;;;;;;;;;;;5092250;28;19947;-57
2023/05/10 05:17:44;;;;;;;;;;;;;;;;;;5086714;28;19975;-56
2023/05/10 05:20:10;;;;;;;;;;;;;;;;;;5085598;28;20360;-57
2023/05/10 05:22:36;;;;;;;;;;;;;;;;;;5089342;28;19919;-56
2023/05/10 05:25:03;;;;;;;;;;;;;;;;;;5089828;28;20327;-57
2023/05/10 05:27:29;;;;;;;;;;;;;;;;;;5097396;28;19920;-57
2023/05/10 05:29:55;;;;;;;;;;;;;;;;;;5085432;28;20585;-56
2023/05/10 05:32:21;;;;;;;;;;;;;;;;;;5088366;28;20425;-63
2023/05/10 05:34:47;;;;;;;;;;;;;;;;;;5087847;28;19916;-58
2023/05/10 05:37:13;;;;;;;;;;;;;;;;;;5091886;28;20667;-57
2023/05/10 05:39:39;;;;;;;;;;;;;;;;;;5085213;28;19920;-57
2023/05/10 05:42:05;;;;;;;;;;;;;;;;;;5092058;28;20437;-57
2023/05/10 05:44:31;;;;;;;;;;;;;;;;;;5092154;28;20311;-58
2023/05/10 05:46:57;;;;;;;;;;;;;;;;;;5092187;28;20372;-57
2023/05/10 05:49:23;;;;;;;;;;;;;;;;;;5091112;28;20008;-57
2023/05/10 05:51:50;;;;;;;;;;;;;;;;;;5092732;28;19955;-57
2023/05/10 05:54:16;;;;;;;;;;;;;;;;;;5083879;28;19911;-57
2023/05/10 05:56:42;;;;;;;;;;;;;;;;;;5091577;28;19923;-57
2023/05/10 05:59:08;;;;;;;;;;;;;;;;;;5092245;28;19950;-58
2023/05/10 06:01:34;;;;;;;;;;;;;;;;;;5092431;28;20328;-57
2023/05/10 06:04:00;;;;;;;;;;;;;;;;;;5090805;28;20346;-57
2023/05/10 06:06:26;;;;;;;;;;;;;;;;;;5092046;28;20325;-57
2023/05/10 06:08:51;;;;;;;;;;;;;;;;;;5092204;28;20295;-58
2023/05/10 06:11:17;;;;;;;;;;;;;;;;;;5091932;28;19912;-57
2023/05/10 06:13:44;;;;;;;;;;;;;;;;;;5090944;28;19943;-58
2023/05/10 06:16:10;;;;;;;;;;;;;;;;;;5092213;28;19946;-57
2023/05/10 06:18:36;;;;;;;;;;;;;;;;;;5090549;28;19959;-57
2023/05/10 06:21:02;;;;;;;;;;;;;;;;;;5089411;28;19908;-57
2023/05/10 06:23:28;;;;;;;;;;;;;;;;;;5090242;28;19920;-57
2023/05/10 06:25:54;;;;;;;;;;;;;;;;;;5090985;28;19916;-56
2023/05/10 06:28:20;;;;;;;;;;;;;;;;;;5090498;28;20288;-57
2023/05/10 06:30:47;;;;;;;;;;;;;;;;;;5090081;28;20062;-57
2023/05/10 06:33:13;;;;;;;;;;;;;;;;;;5089600;28;20379;-58
2023/05/10 06:35:39;;;;;;;;;;;;;;;;;;5089485;28;19918;-57
2023/05/10 06:38:05;;;;;;;;;;;;;;;;;;5091744;28;19908;-57
2023/05/10 06:40:32;;;;;;;;;;;;;;;;;;5087177;28;19912;-57
2023/05/10 06:42:58;;;;;;;;;;;;;;;;;;5085336;28;19962;-57
2023/05/10 06:45:24;;;;;;;;;;;;;;;;;;5091453;28;20331;-57
2023/05/10 06:47:50;;;;;;;;;;;;;;;;;;5074968;28;19912;-57
2023/05/10 06:50:16;;;;;;;;;;;;;;;;;;5070167;28;19999;-57
2023/05/10 06:52:42;;;;;;;;;;;;;;;;;;5069747;28;19944;-57
2023/05/10 06:55:08;;;;;;;;;;;;;;;;;;5085982;28;19952;-57
2023/05/10 06:57:34;;;;;;;;;;;;;;;;;;5089651;28;19908;-57
2023/05/10 07:00:00;;;;;;;;;;;;;;;;;;5089196;28;19919;-57
2023/05/10 07:02:26;;;;;;;;;;;;;;;;;;5083472;28;19963;-59
2023/05/10 07:04:52;;;;;;;;;;;;;;;;;;5086355;28;19958;-57
2023/05/10 07:07:18;;;;;;;;;;;;;;;;;;5094027;28;19954;-58
2023/05/10 07:09:44;;;;;;;;;;;;;;;;;;5091014;28;20299;-57
2023/05/10 07:12:10;;;;;;;;;;;;;;;;;;5090230;28;20334;-58
2023/05/10 07:14:37;;;;;;;;;;;;;;;;;;5091282;28;19956;-58
2023/05/10 07:17:03;;;;;;;;;;;;;;;;;;5091765;28;19908;-57
2023/05/10 07:19:29;;;;;;;;;;;;;;;;;;5095327;28;20261;-57
2023/05/10 07:21:55;;;;;;;;;;;;;;;;;;5094400;28;19912;-58
2023/05/10 07:24:22;;;;;;;;;;;;;;;;;;5095103;28;19927;-58
2023/05/10 07:26:48;;;;;;;;;;;;;;;;;;5080055;28;19962;-59
2023/05/10 07:29:14;;;;;;;;;;;;;;;;;;5074542;28;19961;-58
2023/05/10 07:31:41;;;;;;;;;;;;;;;;;;5089581;28;19912;-59
2023/05/10 07:34:07;;;;;;;;;;;;;;;;;;5090925;28;19974;-57
2023/05/10 07:36:33;;;;;;;;;;;;;;;;;;5094579;28;19912;-59
2023/05/10 07:38:59;;;;;;;;;;;;;;;;;;5094301;28;19961;-59
2023/05/10 07:41:25;;;;;;;;;;;;;;;;;;5095116;28;20316;-58
2023/05/10 07:43:51;;;;;;;;;;;;;;;;;;5085986;28;19924;-59
2023/05/10 07:46:19;;;;;;;;;;;;;;;;;;5079626;28;20369;-56
2023/05/10 07:48:45;;;;;;;;;;;;;;;;;;5086956;28;19913;-58
2023/05/10 07:51:11;;;;;;;;;;;;;;;;;;5085129;28;20081;-57
2023/05/10 07:53:37;;;;;;;;;;;;;;;;;;5082726;28;20279;-58
2023/05/10 07:56:03;;;;;;;;;;;;;;;;;;5087032;28;19923;-58
2023/05/10 07:58:29;;;;;;;;;;;;;;;;;;5094010;28;19999;-58
2023/05/10 08:00:59;;;;;;;;;;;;;;;;;;5092594;28;19989;-57
2023/05/10 08:03:25;;;;;;;;;;;;;;;;;;5091013;28;20287;-57
2023/05/10 08:05:51;;;;;;;;;;;;;;;;;;5093540;28;20012;-57
2023/05/10 08:08:17;;;;;;;;;;;;;;;;;;5090873;28;19960;-57
2023/05/10 08:10:43;;;;;;;;;;;;;;;;;;5089774;28;20421;-57
2023/05/10 08:13:09;;;;;;;;;;;;;;;;;;5091238;28;19959;-57
2023/05/10 08:15:35;;;;;;;;;;;;;;;;;;5088214;28;20343;-57
2023/05/10 08:18:01;;;;;;;;;;;;;;;;;;5085730;28;19912;-57
2023/05/10 08:20:27;;;;;;;;;;;;;;;;;;5074075;28;20007;-57
2023/05/10 08:22:55;;;;;;;;;;;;;;;;;;5080762;28;20018;-56
2023/05/10 08:25:24;;;;;;;;;;;;;;;;;;5091273;28;19919;-57
2023/05/10 08:27:50;;;;;;;;;;;;;;;;;;5090242;28;20384;-57
2023/05/10 08:30:17;;;;;;;;;;;;;;;;;;5093959;28;19947;-56
2023/05/10 08:32:43;;;;;;;;;;;;;;;;;;5089982;28;19912;-56
2023/05/10 08:35:09;;;;;;;;;;;;;;;;;;5090699;28;19955;-56
2023/05/10 08:37:35;;;;;;;;;;;;;;;;;;5092860;28;19955;-56
2023/05/10 08:40:01;;;;;;;;;;;;;;;;;;5093135;28;19960;-56
2023/05/10 08:42:27;;;;;;;;;;;;;;;;;;5092388;28;20386;-56
2023/05/10 08:44:53;;;;;;;;;;;;;;;;;;5091896;28;19924;-56
2023/05/10 08:47:19;;;;;;;;;;;;;;;;;;5080391;28;20266;-56
2023/05/10 08:49:45;;;;;;;;;;;;;;;;;;5091485;28;19999;-56
2023/05/10 08:52:11;;;;;;;;;;;;;;;;;;5100373;28;20045;-56
2023/05/10 08:54:37;;;;;;;;;;;;;;;;;;5092530;28;20223;-56
2023/05/10 08:57:03;;;;;;;;;;;;;;;;;;5092718;28;19912;-57
2023/05/10 08:59:29;;;;;;;;;;;;;;;;;;5095445;28;19969;-57
2023/05/10 09:01:55;;;;;;;;;;;;;;;;;;5097754;28;19912;-56
2023/05/10 09:04:21;;;;;;;;;;;;;;;;;;5089279;28;19923;-56
2023/05/10 09:06:47;;;;;;;;;;;;;;;;;;5091677;28;19938;-57
2023/05/10 09:09:13;;;;;;;;;;;;;;;;;;5091648;28;20727;-57
2023/05/10 09:11:39;;;;;;;;;;;;;;;;;;5101905;28;19998;-57
2023/05/10 09:14:05;;;;;;;;;;;;;;;;;;5092497;28;19912;-57
2023/05/10 09:16:31;;;;;;;;;;;;;;;;;;5090888;28;19969;-57
2023/05/10 09:18:57;;;;;;;;;;;;;;;;;;5089789;28;19962;-57
2023/05/10 09:21:23;;;;;;;;;;;;;;;;;;5100398;28;19959;-57
2023/05/10 09:23:49;;;;;;;;;;;;;;;;;;5089973;28;20346;-57
2023/05/10 09:26:16;;;;;;;;;;;;;;;;;;5089209;28;19920;-57
2023/05/10 09:28:41;;;;;;;;;;;;;;;;;;5091267;28;19912;-57
2023/05/10 09:31:07;;;;;;;;;;;;;;;;;;5101574;28;19955;-57
2023/05/10 09:33:33;;;;;;;;;;;;;;;;;;5091700;28;19962;-58
2023/05/10 09:36:02;;;;;;;;;;;;;;;;;;5091852;28;20277;-58
2023/05/10 09:38:28;;;;;;;;;;;;;;;;;;5092472;28;19908;-58
2023/05/10 09:40:54;;;;;;;;;;;;;;;;;;5093044;28;20381;-57
2023/05/10 09:43:20;;;;;;;;;;;;;;;;;;5092517;28;19955;-57
2023/05/10 09:45:46;;;;;;;;;;;;;;;;;;5091099;28;19923;-57
2023/05/10 09:48:12;;;;;;;;;;;;;;;;;;5091312;28;19908;-56
2023/05/10 09:50:38;;;;;;;;;;;;;;;;;;5096834;28;19912;-57
2023/05/10 09:53:04;;;;;;;;;;;;;;;;;;5089490;28;19912;-57
2023/05/10 09:55:30;;;;;;;;;;;;;;;;;;5091571;28;19958;-57
2023/05/10 09:57:56;;;;;;;;;;;;;;;;;;5092214;28;19908;-57
2023/05/10 10:00:23;;;;;;;;;;;;;;;;;;5089665;28;19919;-57
2023/05/10 10:02:49;;;;;;;;;;;;;;;;;;5090622;28;20062;-57
2023/05/10 10:05:15;;;;;;;;;;;;;;;;;;5091094;28;19908;-60
2023/05/10 10:07:41;;;;;;;;;;;;;;;;;;5090407;28;20385;-57
2023/05/10 10:10:11;;;;;;;;;;;;;;;;;;5091275;28;19913;-57
2023/05/10 10:12:37;;;;;;;;;;;;;;;;;;5091317;28;19919;-56
2023/05/10 10:15:04;;;;;;;;;;;;;;;;;;5090838;28;19923;-58
2023/05/10 10:17:30;;;;;;;;;;;;;;;;;;5091959;28;19912;-56
2023/05/10 10:19:56;;;;;;;;;;;;;;;;;;5089980;28;19951;-56
2023/05/10 10:22:22;;;;;;;;;;;;;;;;;;5090529;28;19908;-57
2023/05/10 10:24:48;;;;;;;;;;;;;;;;;;5088876;28;19916;-57
2023/05/10 10:27:14;;;;;;;;;;;;;;;;;;5090136;28;19959;-57
2023/05/10 10:29:40;;;;;;;;;;;;;;;;;;5090340;28;19987;-56
2023/05/10 10:32:06;;;;;;;;;;;;;;;;;;5092079;28;20368;-57
2023/05/10 10:34:32;;;;;;;;;;;;;;;;;;5089668;28;19955;-57
2023/05/10 10:36:58;;;;;;;;;;;;;;;;;;5091986;28;19916;-57
2023/05/10 10:39:27;;;;;;;;;;;;;;;;;;5088615;28;19926;-57
2023/05/10 10:41:53;;;;;;;;;;;;;;;;;;5088652;28;20283;-58
2023/05/10 10:44:19;;;;;;;;;;;;;;;;;;5087020;28;20288;-58
2023/05/10 10:46:45;;;;;;;;;;;;;;;;;;5093071;28;20360;-57
2023/05/10 10:49:11;;;;;;;;;;;;;;;;;;5093089;28;19912;-57
2023/05/10 10:51:37;;;;;;;;;;;;;;;;;;5094620;28;19916;-58
2023/05/10 10:54:03;;;;;;;;;;;;;;;;;;5091211;28;19921;-57
2023/05/10 10:56:29;;;;;;;;;;;;;;;;;;5093054;28;20415;-59
2023/05/10 10:58:55;;;;;;;;;;;;;;;;;;5093631;28;20387;-59
2023/05/10 11:01:21;;;;;;;;;;;;;;;;;;5092201;28;19971;-59
2023/05/10 11:03:47;;;;;;;;;;;;;;;;;;5092707;28;20014;-59
2023/05/10 11:06:13;;;;;;;;;;;;;;;;;;5092123;28;19955;-59
2023/05/10 11:08:39;;;;;;;;;;;;;;;;;;5092055;28;20326;-60
2023/05/10 11:11:08;;;;;;;;;;;;;;;;;;5091937;28;19947;-59
2023/05/10 11:13:34;;;;;;;;;;;;;;;;;;5090027;28;19922;-58
2023/05/10 11:16:00;;;;;;;;;;;;;;;;;;5094206;28;19915;-59
2023/05/10 11:18:27;;;;;;;;;;;;;;;;;;5091883;28;20420;-58
2023/05/10 11:20:53;;;;;;;;;;;;;;;;;;5092727;28;19913;-58
2023/05/10 11:23:19;;;;;;;;;;;;;;;;;;5092822;28;20263;-58
2023/05/10 11:25:45;;;;;;;;;;;;;;;;;;5093669;28;19947;-58
2023/05/10 11:28:11;;;;;;;;;;;;;;;;;;5090703;28;19951;-58
2023/05/10 11:30:40;;;;;;;;;;;;;;;;;;5094498;28;20307;-58
2023/05/10 11:33:06;;;;;;;;;;;;;;;;;;5091381;28;19912;-58
2023/05/10 11:35:32;;;;;;;;;;;;;;;;;;5091855;28;19940;-58
2023/05/10 11:37:58;;;;;;;;;;;;;;;;;;5094580;28;19908;-58
2023/05/10 11:40:26;;;;;;;;;;;;;;;;;;5093715;28;19912;-58
2023/05/10 11:42:52;;;;;;;;;;;;;;;;;;5092596;28;19912;-58
2023/05/10 11:45:18;;;;;;;;;;;;;;;;;;5092967;28;19947;-58
2023/05/10 11:47:44;;;;;;;;;;;;;;;;;;5090192;28;19916;-58
2023/05/10 11:50:10;;;;;;;;;;;;;;;;;;5091550;28;19913;-58
2023/05/10 11:52:37;;;;;;;;;;;;;;;;;;5091875;28;19923;-59
2023/05/10 11:55:03;;;;;;;;;;;;;;;;;;5092415;28;20474;-58
2023/05/10 11:57:30;;;;;;;;;;;;;;;;;;5092497;28;20029;-59
2023/05/10 11:59:55;;;;;;;;;;;;;;;;;;5091691;28;19939;-58
2023/05/10 12:02:21;;;;;;;;;;;;;;;;;;5089841;28;20438;-58
2023/05/10 12:04:47;;;;;;;;;;;;;;;;;;5096880;28;19993;-57
2023/05/10 12:07:13;;;;;;;;;;;;;;;;;;5099946;28;20644;-57
2023/05/10 12:09:39;;;;;;;;;;;;;;;;;;5088777;28;20070;-59
2023/05/10 12:12:05;;;;;;;;;;;;;;;;;;5088716;28;20450;-57
2023/05/10 12:14:33;;;;;;;;;;;;;;;;;;5092728;28;20011;-58
2023/05/10 12:16:59;;;;;;;;;;;;;;;;;;5092243;28;20332;-58
2023/05/10 12:19:25;;;;;;;;;;;;;;;;;;5089146;28;20363;-58
2023/05/10 12:21:51;;;;;;;;;;;;;;;;;;5093760;28;19963;-58
2023/05/10 12:24:17;;;;;;;;;;;;;;;;;;5091653;28;20444;-58
2023/05/10 12:26:43;;;;;;;;;;;;;;;;;;5092850;28;19923;-58
2023/05/10 12:29:09;;;;;;;;;;;;;;;;;;5093451;28;20080;-58
2023/05/10 12:31:35;;;;;;;;;;;;;;;;;;5097134;28;20335;-58
2023/05/10 12:34:01;;;;;;;;;;;;;;;;;;5103231;28;19934;-58
2023/05/10 12:36:27;;;;;;;;;;;;;;;;;;5084716;28;20014;-58
2023/05/10 12:38:53;;;;;;;;;;;;;;;;;;5093958;28;20010;-58
2023/05/10 12:41:19;;;;;;;;;;;;;;;;;;5094781;28;19943;-58
2023/05/10 12:43:46;;;;;;;;;;;;;;;;;;5092486;28;19940;-58
2023/05/10 12:46:12;;;;;;;;;;;;;;;;;;5092711;28;20291;-58
2023/05/10 12:48:38;;;;;;;;;;;;;;;;;;5090772;28;19912;-58
2023/05/10 12:51:04;;;;;;;;;;;;;;;;;;5092257;28;19916;-58
2023/05/10 12:53:30;;;;;;;;;;;;;;;;;;5090967;28;20030;-58
2023/05/10 12:55:56;;;;;;;;;;;;;;;;;;5091172;28;19916;-58
2023/05/10 12:58:22;;;;;;;;;;;;;;;;;;5087834;28;19916;-58
2023/05/10 13:00:48;;;;;;;;;;;;;;;;;;5091994;28;19909;-58
2023/05/10 13:03:15;;;;;;;;;;;;;;;;;;5089225;28;19956;-57
2023/05/10 13:05:41;;;;;;;;;;;;;;;;;;5089450;28;19916;-57
2023/05/10 13:08:07;;;;;;;;;;;;;;;;;;5091479;28;19918;-57
2023/05/10 13:10:33;;;;;;;;;;;;;;;;;;5085673;28;20006;-57
2023/05/10 13:12:59;;;;;;;;;;;;;;;;;;5083824;28;19952;-57
2023/05/10 13:15:28;;;;;;;;;;;;;;;;;;5089727;28;19965;-57
2023/05/10 13:17:53;;;;;;;;;;;;;;;;;;5092097;28;20372;-57
2023/05/10 13:20:19;;;;;;;;;;;;;;;;;;5089227;28;19989;-57
2023/05/10 13:22:45;;;;;;;;;;;;;;;;;;5092134;28;19954;-57
2023/05/10 13:25:11;;;;;;;;;;;;;;;;;;5090534;28;19955;-57
2023/05/10 13:27:37;;;;;;;;;;;;;;;;;;5083748;28;20385;-57
2023/05/10 13:30:03;;;;;;;;;;;;;;;;;;5090094;28;19923;-57
2023/05/10 13:32:29;;;;;;;;;;;;;;;;;;5090818;28;20387;-56
2023/05/10 13:34:55;;;;;;;;;;;;;;;;;;5086774;28;20440;-55
2023/05/10 13:37:21;;;;;;;;;;;;;;;;;;5087213;28;19959;-55
2023/05/10 13:39:47;;;;;;;;;;;;;;;;;;5091002;28;19947;-55
2023/05/10 13:42:13;;;;;;;;;;;;;;;;;;5092031;28;19912;-56
2023/05/10 13:44:39;;;;;;;;;;;;;;;;;;5090087;28;19966;-55
2023/05/10 13:47:05;;;;;;;;;;;;;;;;;;5091076;28;20455;-55
2023/05/10 13:49:31;;;;;;;;;;;;;;;;;;5089531;28;20003;-55
2023/05/10 13:51:57;;;;;;;;;;;;;;;;;;5091318;28;20007;-57
2023/05/10 13:54:23;;;;;;;;;;;;;;;;;;5087475;28;19973;-56
2023/05/10 13:56:49;;;;;;;;;;;;;;;;;;5091991;28;19912;-55
2023/05/10 13:59:15;;;;;;;;;;;;;;;;;;5090341;28;20012;-55
2023/05/10 14:01:42;;;;;;;;;;;;;;;;;;5090866;28;20372;-56
2023/05/10 14:04:10;;;;;;;;;;;;;;;;;;5088436;28;19916;-55
2023/05/10 14:06:36;;;;;;;;;;;;;;;;;;5090553;28;19919;-56
2023/05/10 14:09:02;;;;;;;;;;;;;;;;;;5091134;28;20283;-55
2023/05/10 14:11:28;;;;;;;;;;;;;;;;;;5094703;28;19912;-56
2023/05/10 14:13:54;;;;;;;;;;;;;;;;;;5096686;28;19992;-56
2023/05/10 14:16:20;;;;;;;;;;;;;;;;;;5090918;28;19947;-57
2023/05/10 14:18:46;;;;;;;;;;;;;;;;;;5087285;28;19912;-56
2023/05/10 14:21:12;;;;;;;;;;;;;;;;;;5090729;28;20341;-55
2023/05/10 14:23:38;;;;;;;;;;;;;;;;;;5089264;28;19981;-56
2023/05/10 14:26:06;;;;;;;;;;;;;;;;;;5089544;28;21524;-56
2023/05/10 14:28:32;;;;;;;;;;;;;;;;;;5089679;28;19947;-56
2023/05/10 14:30:58;;;;;;;;;;;;;;;;;;5090371;28;19912;-56
2023/05/10 14:33:24;;;;;;;;;;;;;;;;;;5103420;28;20438;-56
2023/05/10 14:35:50;;;;;;;;;;;;;;;;;;5109039;28;19912;-56
2023/05/10 14:38:16;;;;;;;;;;;;;;;;;;5085974;28;19912;-56
2023/05/10 14:40:42;;;;;;;;;;;;;;;;;;5089120;28;20490;-56
2023/05/10 14:43:12;;;;;;;;;;;;;;;;;;5086878;28;19967;-56
2023/05/10 14:45:38;;;;;;;;;;;;;;;;;;5088976;28;20315;-55
2023/05/10 14:48:11;;;;;;;;;;;;;;;;;;5088770;28;20371;-55
2023/05/10 14:50:36;;;;;;;;;;;;;;;;;;5098430;28;19931;-55
2023/05/10 14:53:02;;;;;;;;;;;;;;;;;;5091290;28;20140;-56
2023/05/10 14:55:28;;;;;;;;;;;;;;;;;;5092197;28;19908;-56
2023/05/10 14:57:54;;;;;;;;;;;;;;;;;;5087718;28;19951;-56
2023/05/10 15:00:20;;;;;;;;;;;;;;;;;;5088176;28;19996;-56
2023/05/10 15:02:47;;;;;;;;;;;;;;;;;;5086967;28;20364;-55
2023/05/10 15:05:13;;;;;;;;;;;;;;;;;;5088710;28;19913;-55
2023/05/10 15:07:39;;;;;;;;;;;;;;;;;;5087390;28;20008;-55
2023/05/10 15:10:05;;;;;;;;;;;;;;;;;;5082959;28;20368;-56
2023/05/10 15:12:31;;;;;;;;;;;;;;;;;;5089013;28;20316;-55
2023/05/10 15:14:57;;;;;;;;;;;;;;;;;;5087049;28;19955;-59
2023/05/10 15:17:23;;;;;;;;;;;;;;;;;;5096657;28;19953;-55
2023/05/10 15:19:50;;;;;;;;;;;;;;;;;;5088296;28;19965;-55
2023/05/10 15:22:16;;;;;;;;;;;;;;;;;;5088066;28;19938;-55
2023/05/10 15:24:42;;;;;;;;;;;;;;;;;;5087375;28;19971;-55
2023/05/10 15:27:08;;;;;;;;;;;;;;;;;;5091197;28;19956;-55
2023/05/10 15:29:35;;;;;;;;;;;;;;;;;;5091497;28;20572;-55
2023/05/10 15:32:01;;;;;;;;;;;;;;;;;;5092134;28;19973;-55
2023/05/10 15:34:27;;;;;;;;;;;;;;;;;;5090315;28;20123;-55
2023/05/10 15:36:53;;;;;;;;;;;;;;;;;;5091954;28;19998;-55
2023/05/10 15:39:19;;;;;;;;;;;;;;;;;;5091640;28;20053;-55
2023/05/10 15:41:45;;;;;;;;;;;;;;;;;;5090739;28;19912;-54
2023/05/10 15:44:11;;;;;;;;;;;;;;;;;;5088111;28;19947;-55
2023/05/10 15:46:37;;;;;;;;;;;;;;;;;;5088868;28;19948;-55
2023/05/10 15:49:03;;;;;;;;;;;;;;;;;;5087084;28;20313;-55
2023/05/10 15:51:29;;;;;;;;;;;;;;;;;;5097665;28;20026;-55
2023/05/10 15:53:55;;;;;;;;;;;;;;;;;;5093331;28;19919;-58
2023/05/10 15:56:21;;;;;;;;;;;;;;;;;;5092995;28;19920;-56
2023/05/10 15:58:47;;;;;;;;;;;;;;;;;;5091047;28;19922;-56
2023/05/10 16:01:13;;;;;;;;;;;;;;;;;;5088690;28;19944;-55
2023/05/10 16:03:40;;;;;;;;;;;;;;;;;;5086460;28;19924;-57
2023/05/10 16:06:06;;;;;;;;;;;;;;;;;;5089869;28;20286;-54
2023/05/10 16:08:35;;;;;;;;;;;;;;;;;;5090016;28;19913;-54
2023/05/10 16:11:01;;;;;;;;;;;;;;;;;;5092944;28;20528;-55
2023/05/10 16:13:27;;;;;;;;;;;;;;;;;;5089885;28;19916;-55
2023/05/10 16:15:53;;;;;;;;;;;;;;;;;;5091597;28;19950;-55
2023/05/10 16:18:19;;;;;;;;;;;;;;;;;;5088392;28;19916;-54
2023/05/10 16:20:45;;;;;;;;;;;;;;;;;;5086222;28;19955;-55
2023/05/10 16:23:11;;;;;;;;;;;;;;;;;;5090660;28;19916;-54
2023/05/10 16:25:37;;;;;;;;;;;;;;;;;;5088853;28;19920;-55
2023/05/10 16:28:03;;;;;;;;;;;;;;;;;;5087804;28;19916;-54
2023/05/10 16:30:29;;;;;;;;;;;;;;;;;;5089480;28;20016;-54
2023/05/10 16:32:55;;;;;;;;;;;;;;;;;;5089451;28;20380;-55
2023/05/10 16:35:22;;;;;;;;;;;;;;;;;;5089884;28;20406;-54
2023/05/10 16:37:48;;;;;;;;;;;;;;;;;;5092743;28;20299;-54